This demonstration page uses our WeatherBlox Daily Observations layout. Learn more.

38.80484, -77.04692

Hourly Observations for September 13, 2016

Temp ( °F °C ) Dew Point ( °F °C ) Humidity (%) Winds ( mph kmh ) Pressure ( in mb ) Visibility ( mi km ) Precip ( " mm )
12:52 am 00:52 Partly Cloudy 72 22.2 64 17.8 76 76 SSE 9 15 30.21 1023 10 16.0934 0 0
1:52 am 01:52 Mostly Cloudy 71 21.7 65 18.3 81 81 SSE 7 11 30.2 1023 10 16.0934 0 0
2:52 am 02:52 Mostly Cloudy 71 21.7 66 18.9 84 84 S 7 11 30.2 1023 10 16.0934 0 0
3:52 am 03:52 Mostly Cloudy 71 21.7 66 18.9 84 84 S 9 15 30.2 1023 10 16.0934 0 0
4:52 am 04:52 Mostly Cloudy 70 21.1 66 18.9 87 87 SW 5 7 30.21 1023 10 16.0934 0 0
5:52 am 05:52 Cloudy 70 21.1 66 18.9 87 87 SSW 3 6 30.22 1023 10 16.0934 0 0
6:52 am 06:52 Mostly Cloudy 70 21.1 67 19.4 90 90 SSW 6 9 30.22 1024 10 16.0934 0 0
7:52 am 07:52 Partly Cloudy 71 21.7 68 20 90 90 SSW 8 13 30.23 1024 10 16.0934 0 0
8:52 am 08:52 Partly Cloudy 75 23.9 66 18.9 74 74 SSW 12 19 30.22 1024 10 16.0934 0 0
9:52 am 09:52 Partly Cloudy 77 25 67 19.4 71 71 S 13 20 30.22 1024 10 16.0934 0 0
10:52 am 10:52 Mostly Sunny 80 26.7 65 18.3 60 60 S 10 17 30.22 1023 10 16.0934 0 0
11:52 am 11:52 Mostly Sunny 84 28.9 62 16.7 48 48 S 15 24 30.2 1023 10 16.0934 0 0
12:52 pm 12:52 Mostly Sunny 86 30 65 18.3 49 49 S 9 15 30.17 1022 10 16.0934 0 0
1:52 pm 13:52 Mostly Sunny 88 31.1 64 17.8 45 45 SSW 13 20 30.15 1021 10 16.0934 0 0
2:52 pm 14:52 Mostly Sunny 88 31.1 63 17.2 43 43 S 14 22 30.12 1020 10 16.0934 0 0
3:52 pm 15:52 Mostly Sunny 88 31.1 64 17.8 45 45 S 10 17 30.1 1019 10 16.0934 0 0
4:52 pm 16:52 Mostly Sunny 87 30.6 66 18.9 50 50 S 12 19 30.09 1019 10 16.0934 0 0
5:52 pm 17:52 Mostly Sunny 86 30 67 19.4 53 53 S 14 22 30.08 1019 10 16.0934 0 0
6:52 pm 18:52 Sunny 84 28.9 69 20.6 61 61 S 12 19 30.09 1019 10 16.0934 0 0
7:52 pm 19:52 Clear 82 27.8 68 20 63 63 SSE 13 20 30.1 1019 10 16.0934 0 0
8:52 pm 20:52 Clear 78 25.6 66 18.9 67 67 SSE 9 15 30.12 1020 10 16.0934 0 0
9:52 pm 21:52 Clear 77 25 66 18.9 69 69 S 13 20 30.12 1020 10 16.0934 0 0
10:52 pm 22:52 Mostly Cloudy 76 24.4 66 18.9 72 72 S 10 17 30.13 1020 10 16.0934 0 0
11:52 pm 23:52 Mostly Cloudy 75 23.9 65 18.3 71 71 S 12 19 30.12 1020 10 16.0934 0 0

Powered by AerisWeather